createdAt,value
2019-05-01T00:00:46.468Z,43.13
2019-05-01T00:03:32.225Z,42.78
2019-05-01T00:06:02.569Z,45.48
2019-05-01T00:08:31.342Z,45.70
2019-05-01T00:11:00.341Z,50.85
2019-05-01T00:13:29.236Z,44.70
2019-05-01T00:15:58.104Z,50.17
2019-05-01T00:18:26.967Z,54.40
2019-05-01T00:20:55.529Z,51.15
2019-05-01T00:23:24.369Z,50.60
2019-05-01T00:25:53.226Z,55.17
2019-05-01T00:28:22.171Z,52.60
2019-05-01T00:30:51.091Z,53.28
2019-05-01T00:33:19.851Z,56.23
2019-05-01T00:35:48.681Z,53.10
2019-05-01T00:38:17.357Z,52.40
2019-05-01T00:40:46.192Z,53.63
2019-05-01T00:43:14.765Z,50.95
2019-05-01T00:45:44.160Z,57.25
2019-05-01T00:48:12.844Z,57.20
2019-05-01T00:50:41.569Z,53.13
2019-05-01T00:53:10.404Z,50.23
2019-05-01T00:55:57.036Z,54.83
2019-05-01T00:58:42.767Z,55.78
2019-05-01T01:01:31.600Z,58.98
2019-05-01T01:04:00.602Z,61.10
2019-05-01T01:06:29.256Z,58.23
2019-05-01T01:08:58.218Z,60.08
2019-05-01T01:11:27.123Z,59.38
2019-05-01T01:13:56.005Z,63.75
2019-05-01T01:16:25.015Z,61.83
2019-05-01T01:18:53.923Z,60.28
2019-05-01T01:21:22.658Z,60.90
2019-05-01T01:23:51.600Z,67.10
2019-05-01T01:26:20.466Z,69.30
2019-05-01T01:28:49.455Z,67.30
2019-05-01T01:31:18.286Z,65.55
2019-05-01T01:33:47.150Z,64.40
2019-05-01T01:36:15.737Z,66.25
2019-05-01T01:38:44.616Z,64.72
2019-05-01T01:41:13.421Z,60.38
2019-05-01T01:43:43.957Z,57.90
2019-05-01T01:46:20.504Z,62.15
2019-05-01T01:48:49.362Z,65.50
2019-05-01T01:51:18.581Z,63.52
2019-05-01T01:53:47.647Z,66.02
2019-05-01T01:56:17.263Z,63.65
2019-05-01T01:58:46.823Z,60.55
2019-05-01T02:01:17.386Z,67.00
2019-05-01T02:03:59.690Z,63.92
2019-05-01T02:06:28.502Z,65.35
2019-05-01T02:08:57.552Z,65.75
2019-05-01T02:11:27.074Z,62.53
2019-05-01T02:13:56.852Z,69.37
2019-05-01T02:16:25.967Z,68.85
2019-05-01T02:18:54.688Z,68.02
2019-05-01T02:21:23.542Z,62.75
2019-05-01T02:23:52.334Z,72.80
2019-05-01T02:26:23.125Z,64.42
2019-05-01T02:28:56.673Z,70.27
2019-05-01T02:31:29.656Z,66.90
2019-05-01T02:34:00.063Z,69.12
2019-05-01T02:36:29.975Z,69.25
2019-05-01T02:38:59.786Z,69.17
2019-05-01T02:41:31.553Z,69.20
2019-05-01T02:44:03.404Z,68.80
2019-05-01T02:46:35.323Z,63.48
2019-05-01T02:49:12.741Z,74.15
2019-05-01T02:51:43.875Z,69.90
2019-05-01T02:54:14.668Z,67.87
2019-05-01T02:56:55.865Z,76.53
2019-05-01T02:59:26.708Z,69.40
2019-05-01T03:01:55.864Z,70.85
2019-05-01T03:04:47.115Z,68.55
2019-05-01T03:07:17.678Z,68.17
2019-05-01T03:09:47.356Z,69.00
2019-05-01T03:12:19.172Z,74.15
2019-05-01T03:14:50.302Z,70.57
2019-05-01T03:17:24.165Z,75.22
2019-05-01T03:19:58.024Z,73.40
2019-05-01T03:22:28.673Z,67.47
2019-05-01T03:24:57.623Z,73.40
2019-05-01T03:27:26.594Z,71.92
2019-05-01T03:29:56.027Z,69.12
2019-05-01T03:32:25.227Z,70.70
2019-05-01T03:34:54.532Z,73.50
2019-05-01T03:37:23.509Z,74.55
2019-05-01T03:39:53.196Z,72.55
2019-05-01T03:42:22.540Z,80.60
2019-05-01T03:44:51.392Z,78.35
2019-05-01T03:47:20.154Z,82.25
2019-05-01T03:49:49.192Z,79.42
2019-05-01T03:52:18.009Z,81.30
2019-05-01T03:54:46.886Z,93.30
2019-05-01T03:57:16.510Z,96.45
2019-05-01T03:59:46.275Z,75.72
2019-05-01T04:02:33.556Z,86.92
2019-05-01T04:07:26.491Z,85.40
2019-05-01T04:09:56.085Z,96.87
2019-05-01T04:12:25.857Z,91.90
2019-05-01T04:14:55.540Z,91.35
2019-05-01T04:17:35.466Z,84.45
2019-05-01T04:20:05.310Z,100.60
2019-05-01T04:22:34.801Z,98.12
2019-05-01T04:25:04.292Z,96.22
2019-05-01T04:27:34.924Z,104.40
2019-05-01T04:30:05.971Z,111.20
2019-05-01T04:32:51.016Z,106.22
2019-05-01T04:35:20.334Z,111.83
2019-05-01T04:37:50.093Z,106.97
2019-05-01T04:40:20.270Z,108.50
2019-05-01T04:42:49.447Z,107.80
2019-05-01T04:45:19.124Z,108.83
2019-05-01T04:47:48.710Z,121.42
2019-05-01T04:50:17.800Z,103.80
2019-05-01T04:52:46.996Z,112.05
2019-05-01T04:55:17.053Z,87.90
2019-05-01T04:57:46.952Z,100.45
2019-05-01T05:00:16.456Z,95.87
2019-05-01T05:02:47.101Z,90.83
2019-05-01T05:05:16.703Z,92.25
2019-05-01T05:07:46.374Z,85.42
2019-05-01T05:10:15.551Z,86.15
2019-05-01T05:12:46.451Z,84.40
2019-05-01T05:15:20.013Z,80.05
2019-05-01T05:17:49.351Z,84.47
2019-05-01T05:20:18.719Z,71.87
2019-05-01T05:22:48.662Z,74.85
2019-05-01T05:25:17.783Z,79.20
2019-05-01T05:27:47.390Z,77.03
2019-05-01T05:30:16.682Z,86.05
2019-05-01T05:32:47.709Z,75.22
2019-05-01T05:35:18.719Z,82.67
2019-05-01T05:37:54.378Z,74.67
2019-05-01T05:40:24.161Z,92.97
2019-05-01T05:42:54.404Z,87.97
2019-05-01T05:45:23.824Z,94.77
2019-05-01T05:47:52.944Z,94.25
2019-05-01T05:50:23.947Z,97.37
2019-05-01T05:53:11.441Z,109.35
2019-05-01T05:55:45.363Z,101.53
2019-05-01T05:58:18.256Z,99.65
2019-05-01T06:00:53.934Z,100.65
2019-05-01T06:03:43.208Z,95.25
2019-05-01T06:06:16.917Z,85.38
2019-05-01T06:08:48.059Z,77.17
2019-05-01T06:11:33.817Z,83.35
2019-05-01T06:14:18.276Z,71.05
2019-05-01T06:16:55.486Z,70.15
2019-05-01T06:19:29.100Z,66.87
2019-05-01T06:22:16.831Z,69.05
2019-05-01T06:24:57.867Z,72.05
2019-05-01T06:27:27.755Z,64.77
2019-05-01T06:29:58.136Z,69.17
2019-05-01T06:32:28.790Z,74.07
2019-05-01T06:34:58.474Z,68.97
2019-05-01T06:38:00.207Z,82.45
2019-05-01T06:40:43.662Z,68.07
2019-05-01T06:43:25.225Z,64.75
2019-05-01T06:46:07.677Z,70.03
2019-05-01T06:48:38.555Z,69.45
2019-05-01T06:51:13.002Z,67.90
2019-05-01T06:53:41.313Z,62.67
2019-05-01T06:56:10.689Z,58.15
2019-05-01T06:58:39.693Z,62.55
2019-05-01T07:01:08.976Z,62.27
2019-05-01T07:03:40.851Z,57.25
2019-05-01T07:06:14.346Z,58.40
2019-05-01T07:08:39.744Z,57.62
2019-05-01T07:11:10.937Z,53.52
2019-05-01T07:13:41.517Z,61.35
2019-05-01T07:16:10.931Z,53.85
2019-05-01T07:18:40.090Z,51.35
2019-05-01T07:21:09.158Z,47.80
2019-05-01T07:23:38.642Z,46.95
2019-05-01T07:26:10.014Z,46.68
2019-05-01T07:28:40.142Z,47.67
2019-05-01T07:31:10.927Z,48.58
2019-05-01T07:33:40.140Z,44.65
2019-05-01T07:36:15.204Z,47.50
2019-05-01T07:38:44.299Z,49.50
2019-05-01T07:41:13.489Z,47.88
2019-05-01T07:43:44.891Z,48.55
2019-05-01T07:46:25.066Z,50.17
2019-05-01T07:48:54.386Z,48.85
2019-05-01T07:51:23.744Z,49.85
2019-05-01T07:53:53.192Z,47.65
2019-05-01T07:56:27.548Z,49.35
2019-05-01T07:58:53.908Z,47.03
2019-05-01T08:01:27.876Z,44.53
2019-05-01T08:03:57.251Z,39.03
2019-05-01T08:06:26.416Z,39.55
2019-05-01T08:08:55.612Z,37.28
2019-05-01T08:11:24.947Z,37.00
2019-05-01T08:14:06.590Z,35.68
2019-05-01T08:16:25.133Z,35.33
2019-05-01T08:19:05.895Z,38.63
2019-05-01T08:21:39.450Z,36.63
2019-05-01T08:24:08.830Z,38.53
2019-05-01T08:26:39.788Z,37.58
2019-05-01T08:29:19.153Z,42.13
2019-05-01T08:32:07.367Z,34.18
2019-05-01T08:34:48.475Z,36.48
2019-05-01T08:37:08.775Z,34.90
2019-05-01T08:39:39.606Z,37.58
2019-05-01T08:42:09.436Z,33.70
2019-05-01T08:44:59.928Z,36.48
2019-05-01T08:47:28.763Z,33.80
2019-05-01T08:49:59.223Z,37.03
2019-05-01T08:52:28.347Z,35.58
2019-05-01T08:54:57.610Z,31.57
2019-05-01T08:57:29.213Z,31.25
2019-05-01T09:00:00.265Z,29.80
2019-05-01T09:02:28.326Z,31.97
2019-05-01T09:05:02.618Z,30.57
2019-05-01T09:07:28.436Z,30.43
2019-05-01T09:09:57.352Z,30.43
2019-05-01T09:12:26.985Z,30.92
2019-05-01T09:14:56.231Z,31.45
2019-05-01T09:17:25.589Z,28.20
2019-05-01T09:19:54.783Z,29.75
2019-05-01T09:22:23.995Z,32.40
2019-05-01T09:24:54.459Z,30.70
2019-05-01T09:27:40.740Z,26.97
2019-05-01T09:30:28.694Z,32.00
2019-05-01T09:32:58.029Z,25.60
2019-05-01T09:35:27.214Z,24.67
2019-05-01T09:37:56.688Z,26.33
2019-05-01T09:40:25.796Z,28.75
2019-05-01T09:42:59.264Z,27.17
2019-05-01T09:45:26.362Z,25.75
2019-05-01T09:47:56.015Z,24.72
2019-05-01T09:50:25.838Z,25.25
2019-05-01T09:55:49.237Z,23.32
2019-05-01T09:58:18.811Z,22.55
2019-05-01T10:00:48.740Z,23.42
2019-05-01T10:03:18.815Z,22.20
2019-05-01T10:05:47.845Z,18.85
2019-05-01T10:08:17.185Z,21.48
2019-05-01T10:10:46.422Z,18.60
2019-05-01T10:13:17.764Z,18.82
2019-05-01T10:15:46.446Z,17.70
2019-05-01T10:18:15.716Z,17.67
2019-05-01T10:20:44.975Z,19.25
2019-05-01T10:23:15.082Z,18.95
2019-05-01T10:25:47.928Z,16.17
2019-05-01T10:28:18.013Z,18.07
2019-05-01T10:30:49.054Z,17.02
2019-05-01T10:33:28.972Z,17.45
2019-05-01T10:36:03.967Z,15.38
2019-05-01T10:38:33.272Z,13.20
2019-05-01T10:41:04.163Z,16.20
2019-05-01T10:43:33.215Z,15.32
2019-05-01T10:46:02.687Z,15.72
2019-05-01T10:48:31.878Z,13.78
2019-05-01T10:51:01.424Z,13.65
2019-05-01T10:53:30.783Z,15.53
2019-05-01T10:55:59.810Z,10.95
2019-05-01T10:58:29.090Z,12.58
2019-05-01T11:00:59.882Z,11.93
2019-05-01T11:03:29.227Z,14.40
2019-05-01T11:05:58.476Z,13.32
2019-05-01T11:08:27.835Z,10.72
2019-05-01T11:10:57.310Z,10.05
2019-05-01T11:13:26.452Z,11.43
2019-05-01T11:15:55.751Z,12.98
2019-05-01T11:18:24.974Z,10.80
2019-05-01T11:20:54.247Z,13.95
2019-05-01T11:23:23.914Z,11.12
2019-05-01T11:25:53.323Z,10.18
2019-05-01T11:28:22.607Z,11.83
2019-05-01T11:30:51.866Z,12.63
2019-05-01T11:33:28.883Z,12.78
2019-05-01T11:36:11.986Z,12.95
2019-05-01T11:38:43.056Z,11.53
2019-05-01T11:41:14.048Z,10.45
2019-05-01T11:43:43.802Z,14.33
2019-05-01T11:46:13.103Z,12.43
2019-05-01T11:48:44.487Z,15.88
2019-05-01T11:53:42.681Z,11.57
2019-05-01T11:56:12.781Z,11.30
2019-05-01T11:58:42.311Z,12.00
2019-05-01T12:01:13.088Z,12.53
2019-05-01T12:03:42.686Z,9.63
2019-05-01T12:06:22.342Z,11.88
2019-05-01T12:11:12.363Z,10.08
2019-05-01T12:13:44.056Z,10.30
2019-05-01T12:16:14.436Z,11.95
2019-05-01T12:21:12.591Z,10.63
2019-05-01T12:23:42.155Z,8.05
2019-05-01T12:26:11.705Z,11.03
2019-05-01T12:28:41.609Z,12.13
2019-05-01T12:31:10.960Z,13.58
2019-05-01T12:33:40.540Z,8.35
2019-05-01T12:36:09.952Z,12.88
2019-05-01T12:38:39.108Z,9.40
2019-05-01T12:41:26.357Z,10.45
2019-05-01T12:43:56.048Z,12.13
2019-05-01T12:46:45.072Z,8.23
2019-05-01T12:49:15.827Z,10.82
2019-05-01T12:51:46.877Z,11.50
2019-05-01T12:54:20.781Z,11.00
2019-05-01T12:57:01.124Z,9.90
2019-05-01T12:59:30.723Z,7.80
2019-05-01T13:02:00.026Z,10.88
2019-05-01T13:04:29.253Z,10.48
2019-05-01T13:06:59.480Z,10.58
2019-05-01T13:09:29.201Z,12.88
2019-05-01T13:11:58.805Z,10.27
2019-05-01T13:14:28.308Z,11.73
2019-05-01T13:16:57.567Z,11.78
2019-05-01T13:19:26.985Z,10.30
2019-05-01T13:21:56.360Z,11.43
2019-05-01T13:24:25.873Z,9.35
2019-05-01T13:27:15.040Z,8.55
2019-05-01T13:29:46.315Z,9.45
2019-05-01T13:32:26.745Z,9.45
2019-05-01T13:34:56.811Z,9.43
2019-05-01T13:37:26.075Z,9.40
2019-05-01T13:39:55.879Z,14.05
2019-05-01T13:42:25.453Z,12.63
2019-05-01T13:44:54.764Z,8.25
2019-05-01T13:47:24.072Z,13.38
2019-05-01T13:49:53.658Z,11.35
2019-05-01T13:52:23.652Z,9.03
2019-05-01T13:54:53.199Z,11.60
2019-05-01T13:57:22.644Z,7.50
2019-05-01T13:59:52.258Z,8.90
2019-05-01T14:02:21.742Z,7.45
2019-05-01T14:04:51.032Z,11.17
2019-05-01T14:07:20.497Z,10.50
2019-05-01T14:09:49.916Z,7.47
2019-05-01T14:12:19.131Z,12.90
2019-05-01T14:14:48.359Z,9.88
2019-05-01T14:17:17.758Z,9.28
2019-05-01T14:19:48.775Z,8.90
2019-05-01T14:22:19.827Z,10.03
2019-05-01T14:24:50.940Z,7.78
2019-05-01T14:27:20.578Z,11.70
2019-05-01T14:29:50.150Z,9.10
2019-05-01T14:32:19.499Z,12.58
2019-05-01T14:34:48.960Z,11.15
2019-05-01T14:37:29.114Z,10.15
2019-05-01T14:39:49.475Z,10.50
2019-05-01T14:42:19.492Z,10.13
2019-05-01T14:44:50.780Z,9.25
2019-05-01T14:47:20.412Z,12.63
2019-05-01T14:49:49.937Z,11.12
2019-05-01T14:52:19.141Z,11.80
2019-05-01T14:54:48.668Z,9.50
2019-05-01T14:57:18.180Z,10.88
2019-05-01T14:59:47.471Z,9.00
2019-05-01T15:02:17.180Z,8.48
2019-05-01T15:04:46.707Z,10.35
2019-05-01T15:07:16.025Z,8.38
2019-05-01T15:09:45.138Z,9.90
2019-05-01T15:12:14.374Z,7.62
2019-05-01T15:15:00.207Z,8.93
2019-05-01T15:17:30.797Z,8.10
2019-05-01T15:20:04.875Z,8.98
2019-05-01T15:22:34.189Z,9.68
2019-05-01T15:25:03.346Z,11.70
2019-05-01T15:27:32.567Z,7.97
2019-05-01T15:30:01.705Z,12.25
2019-05-01T15:32:30.827Z,9.23
2019-05-01T15:34:59.967Z,10.28
2019-05-01T15:37:29.212Z,10.72
2019-05-01T15:40:00.297Z,8.80
2019-05-01T15:42:31.459Z,10.53
2019-05-01T15:47:29.330Z,9.13
2019-05-01T15:49:58.636Z,10.82
2019-05-01T15:52:27.871Z,11.45
2019-05-01T15:54:57.192Z,9.08
2019-05-01T15:57:26.589Z,8.93
2019-05-01T15:59:55.996Z,11.12
2019-05-01T16:02:25.330Z,8.35
2019-05-01T16:04:54.740Z,10.15
2019-05-01T16:07:24.455Z,10.08
2019-05-01T16:09:53.787Z,8.95
2019-05-01T16:12:30.804Z,9.55
2019-05-01T16:15:00.313Z,9.40
2019-05-01T16:17:29.824Z,13.15
2019-05-01T16:19:59.019Z,10.00
2019-05-01T16:22:28.615Z,9.33
2019-05-01T16:24:58.308Z,9.48
2019-05-01T16:27:27.785Z,9.53
2019-05-01T16:29:57.124Z,8.83
2019-05-01T16:32:26.413Z,8.08
2019-05-01T16:34:55.962Z,13.38
2019-05-01T16:37:25.240Z,10.70
2019-05-01T16:39:56.143Z,7.62
2019-05-01T16:42:26.748Z,9.15
2019-05-01T16:44:56.232Z,8.28
2019-05-01T16:47:25.780Z,10.88
2019-05-01T16:49:55.319Z,11.68
2019-05-01T16:52:26.564Z,10.58
2019-05-01T16:54:59.498Z,8.33
2019-05-01T16:57:26.651Z,10.68
2019-05-01T16:59:56.440Z,9.75
2019-05-01T17:02:33.450Z,11.03
2019-05-01T17:05:32.492Z,11.20
2019-05-01T17:08:15.497Z,9.78
2019-05-01T17:10:52.430Z,10.18
2019-05-01T17:13:21.845Z,11.57
2019-05-01T17:15:51.835Z,10.75
2019-05-01T17:18:21.246Z,11.35
2019-05-01T17:20:50.486Z,12.78
2019-05-01T17:23:20.015Z,13.30
2019-05-01T17:25:49.013Z,10.82
2019-05-01T17:28:18.347Z,13.40
2019-05-01T17:30:50.360Z,10.45
2019-05-01T17:33:20.756Z,9.43
2019-05-01T17:35:50.543Z,12.37
2019-05-01T17:38:20.221Z,9.28
2019-05-01T17:40:51.974Z,6.60
2019-05-01T17:43:20.461Z,9.58
2019-05-01T17:45:50.031Z,7.05
2019-05-01T17:48:19.416Z,12.35
2019-05-01T17:50:48.826Z,7.45
2019-05-01T17:53:18.393Z,10.58
2019-05-01T17:55:47.686Z,9.03
2019-05-01T17:58:16.903Z,6.72
2019-05-01T18:00:47.600Z,8.73
2019-05-01T18:03:21.497Z,9.43
2019-05-01T18:06:10.883Z,10.10
2019-05-01T18:08:40.377Z,10.48
2019-05-01T18:11:14.146Z,8.18
2019-05-01T18:13:41.078Z,9.48
2019-05-01T18:16:10.511Z,6.87
2019-05-01T18:18:40.224Z,11.38
2019-05-01T18:21:11.290Z,8.35
2019-05-01T18:24:01.404Z,8.43
2019-05-01T18:26:32.112Z,8.38
2019-05-01T18:29:15.732Z,7.60
2019-05-01T18:31:44.997Z,11.45
2019-05-01T18:34:14.620Z,7.85
2019-05-01T18:37:02.099Z,10.70
2019-05-01T18:39:33.087Z,9.55
2019-05-01T18:42:04.380Z,8.93
2019-05-01T18:44:34.053Z,10.18
2019-05-01T18:47:03.461Z,13.10
2019-05-01T18:49:33.207Z,12.07
2019-05-01T18:52:02.758Z,12.75
2019-05-01T18:54:35.132Z,13.50
2019-05-01T18:57:03.230Z,12.85
2019-05-01T18:59:33.067Z,13.18
2019-05-01T19:02:02.716Z,13.65
2019-05-01T19:04:32.473Z,13.08
2019-05-01T19:07:02.151Z,12.25
2019-05-01T19:09:31.584Z,13.90
2019-05-01T19:12:00.738Z,14.35
2019-05-01T19:14:30.868Z,14.13
2019-05-01T19:17:00.634Z,14.00
2019-05-01T19:19:29.600Z,14.75
2019-05-01T19:21:58.483Z,13.55
2019-05-01T19:24:27.291Z,15.45
2019-05-01T19:26:55.953Z,11.90
2019-05-01T19:29:26.860Z,15.43
2019-05-01T19:31:57.220Z,10.93
2019-05-01T19:34:25.888Z,11.35
2019-05-01T19:36:54.650Z,13.65
2019-05-01T19:39:23.424Z,13.93
2019-05-01T19:41:54.591Z,13.38
2019-05-01T19:44:22.730Z,14.23
2019-05-01T19:46:54.938Z,16.80
2019-05-01T19:49:24.734Z,16.00
2019-05-01T19:51:55.450Z,16.23
2019-05-01T19:54:28.097Z,17.37
2019-05-01T19:56:55.349Z,18.60
2019-05-01T19:59:24.203Z,16.20
2019-05-01T20:01:52.878Z,16.60
2019-05-01T20:04:22.023Z,14.98
2019-05-01T20:06:50.872Z,17.15
2019-05-01T20:09:20.144Z,16.55
2019-05-01T20:11:49.160Z,18.95
2019-05-01T20:14:18.086Z,16.30
2019-05-01T20:16:47.064Z,17.20
2019-05-01T20:19:15.894Z,20.02
2019-05-01T20:21:44.861Z,19.57
2019-05-01T20:24:13.898Z,17.45
2019-05-01T20:26:42.617Z,19.15
2019-05-01T20:29:11.473Z,18.92
2019-05-01T20:31:40.405Z,21.70
2019-05-01T20:34:11.966Z,20.02
2019-05-01T20:36:39.815Z,20.25
2019-05-01T20:39:08.790Z,17.73
2019-05-01T20:41:37.568Z,20.12
2019-05-01T20:44:06.477Z,20.90
2019-05-01T20:46:35.279Z,18.95
2019-05-01T20:49:06.509Z,27.27
2019-05-01T20:51:34.399Z,23.30
2019-05-01T20:54:03.608Z,23.95
2019-05-01T20:56:33.967Z,23.18
2019-05-01T20:59:04.939Z,26.55
2019-05-01T21:01:33.539Z,20.60
2019-05-01T21:04:03.885Z,24.27
2019-05-01T21:06:34.276Z,22.70
2019-05-01T21:09:08.174Z,22.35
2019-05-01T21:11:36.463Z,21.82
2019-05-01T21:14:19.861Z,20.60
2019-05-01T21:16:38.070Z,22.35
2019-05-01T21:19:06.200Z,23.15
2019-05-01T21:21:34.920Z,19.98
2019-05-01T21:24:04.026Z,23.27
2019-05-01T21:26:33.586Z,22.30
2019-05-01T21:29:04.087Z,23.42
2019-05-01T21:31:34.131Z,22.40
2019-05-01T21:34:04.252Z,25.40
2019-05-01T21:36:33.147Z,29.02
2019-05-01T21:39:01.932Z,26.30
2019-05-01T21:41:32.790Z,26.45
2019-05-01T21:44:03.050Z,29.00
2019-05-01T21:46:31.552Z,28.23
2019-05-01T21:49:00.236Z,31.45
2019-05-01T21:51:28.950Z,30.08
2019-05-01T21:53:57.916Z,31.45
2019-05-01T21:56:26.600Z,33.53
2019-05-01T21:58:59.531Z,29.70
2019-05-01T22:01:25.805Z,34.83
2019-05-01T22:03:57.106Z,32.95
2019-05-01T22:06:25.830Z,34.97
2019-05-01T22:08:54.910Z,38.67
2019-05-01T22:11:23.615Z,34.70
2019-05-01T22:13:55.091Z,36.95
2019-05-01T22:16:24.610Z,37.80
2019-05-01T22:19:06.876Z,35.23
2019-05-01T22:21:52.388Z,36.53
2019-05-01T22:24:39.234Z,39.13
2019-05-01T22:27:12.903Z,42.45
2019-05-01T22:29:43.233Z,40.88
2019-05-01T22:32:27.769Z,42.08
2019-05-01T22:35:03.621Z,39.50
2019-05-01T22:37:32.865Z,43.40
2019-05-01T22:40:04.393Z,42.05
2019-05-01T22:42:33.309Z,44.00
2019-05-01T22:45:02.072Z,45.83
2019-05-01T22:47:31.117Z,40.45
2019-05-01T22:49:59.967Z,46.45
2019-05-01T22:52:28.702Z,45.40
2019-05-01T22:54:57.898Z,43.17
2019-05-01T22:57:26.639Z,45.98
2019-05-01T22:59:55.521Z,43.50
2019-05-01T23:02:42.737Z,45.20
2019-05-01T23:05:11.842Z,49.53
2019-05-01T23:07:40.759Z,48.52
2019-05-01T23:10:10.071Z,47.08
2019-05-01T23:12:38.861Z,45.28
2019-05-01T23:15:12.359Z,53.10
2019-05-01T23:17:46.187Z,45.83
2019-05-01T23:20:16.394Z,49.00
2019-05-01T23:22:45.265Z,47.93
2019-05-01T23:25:14.740Z,48.13
2019-05-01T23:27:43.615Z,46.73
2019-05-01T23:30:16.375Z,50.70
2019-05-01T23:32:45.866Z,52.58
2019-05-01T23:35:14.881Z,45.88
2019-05-01T23:37:43.624Z,47.55
2019-05-01T23:40:15.474Z,45.25
2019-05-01T23:42:51.997Z,49.80
2019-05-01T23:45:14.452Z,45.73
2019-05-01T23:47:43.909Z,46.18
2019-05-01T23:50:13.761Z,48.58
2019-05-01T23:52:42.568Z,49.18
2019-05-01T23:55:11.525Z,46.88
2019-05-01T23:57:40.346Z,45.58
